createdAt,value
2017-09-24T00:01:19.928Z,99.10
2017-09-24T00:03:49.178Z,99.40
2017-09-24T00:06:18.445Z,99.20
2017-09-24T00:08:47.726Z,99.20
2017-09-24T00:11:17.214Z,99.10
2017-09-24T00:13:47.301Z,99.10
2017-09-24T00:16:16.560Z,99.10
2017-09-24T00:18:45.957Z,99.40
2017-09-24T00:21:15.219Z,99.00
2017-09-24T00:23:44.494Z,99.10
2017-09-24T00:26:13.751Z,98.90
2017-09-24T00:28:43.037Z,99.00
2017-09-24T00:31:12.335Z,98.70
2017-09-24T00:33:41.602Z,98.60
2017-09-24T00:36:10.886Z,98.80
2017-09-24T00:38:40.162Z,98.80
2017-09-24T00:41:09.533Z,98.70
2017-09-24T00:43:40.310Z,98.50
2017-09-24T00:46:09.586Z,98.50
2017-09-24T00:48:38.868Z,98.50
2017-09-24T00:51:08.287Z,98.70
2017-09-24T00:53:38.337Z,98.90
2017-09-24T00:56:07.610Z,98.90
2017-09-24T00:58:36.864Z,98.90
2017-09-24T01:01:06.162Z,99.40
2017-09-24T01:03:35.417Z,99.00
2017-09-24T01:06:05.458Z,99.10
2017-09-24T01:08:35.338Z,99.10
2017-09-24T01:11:04.609Z,99.10
2017-09-24T01:13:33.859Z,99.30
2017-09-24T01:16:03.257Z,99.30
2017-09-24T01:18:32.526Z,99.20
2017-09-24T01:21:01.957Z,99.20
2017-09-24T01:23:31.350Z,99.20
2017-09-24T01:26:00.629Z,99.20
2017-09-24T01:28:29.910Z,99.20
2017-09-24T01:30:59.169Z,99.10
2017-09-24T01:33:28.464Z,99.10
2017-09-24T01:35:58.504Z,99.30
2017-09-24T01:38:27.773Z,99.20
2017-09-24T01:40:57.047Z,99.20
2017-09-24T01:43:26.300Z,99.30
2017-09-24T01:45:55.605Z,99.40
2017-09-24T01:48:25.612Z,99.50
2017-09-24T01:50:55.039Z,99.50
2017-09-24T01:53:24.297Z,99.40
2017-09-24T01:55:54.319Z,99.40
2017-09-24T01:58:23.725Z,99.40
2017-09-24T02:00:53.771Z,99.20
2017-09-24T02:03:23.151Z,99.20
2017-09-24T02:05:53.350Z,99.30
2017-09-24T02:08:22.598Z,99.30
2017-09-24T02:10:51.940Z,99.20
2017-09-24T02:13:21.187Z,99.20
2017-09-24T02:15:50.474Z,99.20
2017-09-24T02:18:20.496Z,99.20
2017-09-24T02:20:49.891Z,99.10
2017-09-24T02:23:19.156Z,99.00
2017-09-24T02:25:48.430Z,98.90
2017-09-24T02:28:17.704Z,99.00
2017-09-24T02:30:47.106Z,99.00
2017-09-24T02:33:17.608Z,98.90
2017-09-24T02:35:46.866Z,98.90
2017-09-24T02:38:16.150Z,98.90
2017-09-24T02:40:45.529Z,98.70
2017-09-24T02:43:15.577Z,98.90
2017-09-24T02:45:44.838Z,98.70
2017-09-24T02:48:14.095Z,98.70
2017-09-24T02:50:43.379Z,98.80
2017-09-24T02:53:12.645Z,98.80
2017-09-24T02:55:41.921Z,98.60
2017-09-24T02:58:11.175Z,98.40
2017-09-24T03:00:40.440Z,98.60
2017-09-24T03:03:09.701Z,98.30
2017-09-24T03:05:38.977Z,98.40
2017-09-24T03:08:08.256Z,98.20
2017-09-24T03:10:37.505Z,98.40
2017-09-24T03:13:06.775Z,98.40
2017-09-24T03:15:36.026Z,98.40
2017-09-24T03:18:05.270Z,98.40
2017-09-24T03:20:35.313Z,98.50
2017-09-24T03:23:04.579Z,98.40
2017-09-24T03:25:33.836Z,98.40
2017-09-24T03:28:03.100Z,98.60
2017-09-24T03:30:32.379Z,98.70
2017-09-24T03:33:01.702Z,98.60
2017-09-24T03:35:31.817Z,98.50
2017-09-24T03:38:01.937Z,98.20
2017-09-24T03:40:31.945Z,98.10
2017-09-24T03:43:01.335Z,98.10
2017-09-24T03:45:30.651Z,98.00
2017-09-24T03:48:00.665Z,98.10
2017-09-24T03:50:29.934Z,98.10
2017-09-24T03:52:59.205Z,98.10
2017-09-24T03:55:28.589Z,98.00
2017-09-24T03:57:57.953Z,98.00
2017-09-24T04:00:27.200Z,98.10
2017-09-24T04:02:56.621Z,98.10
2017-09-24T04:05:25.893Z,98.00
2017-09-24T04:07:55.919Z,97.90
2017-09-24T04:10:25.173Z,97.90
2017-09-24T04:12:54.445Z,98.00
2017-09-24T04:15:23.713Z,97.90
2017-09-24T04:17:53.729Z,98.20
2017-09-24T04:20:23.009Z,98.20
2017-09-24T04:22:53.066Z,98.40
2017-09-24T04:25:22.392Z,98.40
2017-09-24T04:27:51.654Z,98.30
2017-09-24T04:30:21.685Z,98.50
2017-09-24T04:32:50.964Z,98.50
2017-09-24T04:35:20.226Z,98.30
2017-09-24T04:37:49.502Z,98.30
2017-09-24T04:40:18.762Z,98.30
2017-09-24T04:42:48.811Z,98.70
2017-09-24T04:45:18.069Z,98.30
2017-09-24T04:47:47.324Z,98.20
2017-09-24T04:50:16.704Z,98.30
2017-09-24T04:52:45.917Z,98.30
2017-09-24T04:55:15.229Z,98.00
2017-09-24T04:57:44.739Z,97.90
2017-09-24T05:00:14.149Z,98.10
2017-09-24T05:02:43.474Z,98.10
2017-09-24T05:05:12.753Z,98.20
2017-09-24T05:07:42.050Z,98.10
2017-09-24T05:10:11.327Z,98.00
2017-09-24T05:12:40.586Z,98.00
2017-09-24T05:15:09.829Z,98.10
2017-09-24T05:17:39.078Z,98.30
2017-09-24T05:20:08.393Z,98.20
2017-09-24T05:22:37.651Z,98.50
2017-09-24T05:25:07.005Z,98.10
2017-09-24T05:27:37.026Z,98.70
2017-09-24T05:30:06.294Z,98.70
2017-09-24T05:32:35.549Z,98.70
2017-09-24T05:35:04.828Z,98.80
2017-09-24T05:37:34.139Z,98.80
2017-09-24T05:40:04.170Z,98.80
2017-09-24T05:42:33.545Z,98.80
2017-09-24T05:45:03.714Z,98.60
2017-09-24T05:47:32.985Z,98.60
2017-09-24T05:50:03.013Z,98.00
2017-09-24T05:52:32.285Z,98.00
2017-09-24T05:55:01.570Z,98.00
2017-09-24T05:57:30.859Z,97.80
2017-09-24T06:00:00.119Z,97.70
2017-09-24T06:02:29.557Z,97.40
2017-09-24T06:04:58.956Z,97.40
2017-09-24T06:07:28.211Z,97.30
2017-09-24T06:09:58.250Z,97.00
2017-09-24T06:12:27.532Z,96.90
2017-09-24T06:14:56.938Z,96.90
2017-09-24T06:17:26.972Z,96.60
2017-09-24T06:19:56.333Z,96.60
2017-09-24T06:22:25.603Z,96.50
2017-09-24T06:24:54.918Z,96.00
2017-09-24T06:27:24.195Z,95.60
2017-09-24T06:29:54.274Z,95.50
2017-09-24T06:32:23.538Z,94.70
2017-09-24T06:34:52.990Z,94.30
2017-09-24T06:37:23.076Z,93.10
2017-09-24T06:39:52.299Z,93.10
2017-09-24T06:42:21.586Z,92.70
2017-09-24T06:44:50.844Z,92.00
2017-09-24T06:47:20.420Z,91.40
2017-09-24T06:49:49.830Z,89.00
2017-09-24T06:52:19.122Z,87.80
2017-09-24T06:54:49.130Z,86.50
2017-09-24T06:57:18.410Z,86.60
2017-09-24T06:59:47.745Z,87.30
2017-09-24T07:02:17.014Z,87.70
2017-09-24T07:04:46.257Z,89.20
2017-09-24T07:07:16.555Z,90.00
2017-09-24T07:09:45.814Z,89.90
2017-09-24T07:12:15.110Z,90.30
2017-09-24T07:14:44.375Z,89.90
2017-09-24T07:17:13.654Z,88.10
2017-09-24T07:19:43.049Z,87.90
2017-09-24T07:22:13.050Z,85.50
2017-09-24T07:24:43.066Z,86.10
2017-09-24T07:27:12.337Z,78.40
2017-09-24T07:29:41.855Z,71.20
2017-09-24T07:32:11.099Z,65.80
2017-09-24T07:34:41.864Z,56.00
2017-09-24T07:37:11.877Z,57.20
2017-09-24T07:39:41.919Z,54.90
2017-09-24T07:42:11.305Z,54.90
2017-09-24T07:44:40.657Z,52.70
2017-09-24T07:47:10.090Z,53.30
2017-09-24T07:49:39.362Z,54.60
2017-09-24T07:52:08.606Z,54.60
2017-09-24T07:54:38.617Z,56.00
2017-09-24T07:57:08.658Z,50.90
2017-09-24T07:59:37.897Z,50.80
2017-09-24T08:02:07.178Z,49.60
2017-09-24T08:04:36.442Z,45.10
2017-09-24T08:07:06.472Z,46.10
2017-09-24T08:09:35.858Z,46.10
2017-09-24T08:12:05.899Z,50.10
2017-09-24T08:14:35.169Z,50.20
2017-09-24T08:17:04.590Z,53.00
2017-09-24T08:19:34.620Z,53.40
2017-09-24T08:22:03.969Z,53.40
2017-09-24T08:24:33.304Z,53.90
2017-09-24T08:27:03.340Z,57.60
2017-09-24T08:29:32.757Z,57.60
2017-09-24T08:32:02.009Z,60.20
2017-09-24T08:34:31.298Z,61.60
2017-09-24T08:37:00.548Z,65.40
2017-09-24T08:39:29.826Z,65.50
2017-09-24T08:41:59.106Z,63.10
2017-09-24T08:44:28.358Z,63.30
2017-09-24T08:46:57.639Z,58.60
2017-09-24T08:49:27.748Z,55.90
2017-09-24T08:51:57.762Z,55.80
2017-09-24T08:54:27.029Z,55.80
2017-09-24T08:56:56.291Z,58.30
2017-09-24T08:59:25.578Z,58.10
2017-09-24T09:01:55.582Z,54.20
2017-09-24T09:04:25.004Z,54.40
2017-09-24T09:06:55.021Z,54.60
2017-09-24T09:09:25.054Z,55.30
2017-09-24T09:11:54.342Z,55.30
2017-09-24T09:14:23.711Z,56.60
2017-09-24T09:16:52.977Z,56.00
2017-09-24T09:19:22.258Z,55.80
2017-09-24T09:21:51.713Z,55.60
2017-09-24T09:24:21.870Z,55.80
2017-09-24T09:26:51.906Z,55.50
2017-09-24T09:29:21.198Z,55.40
2017-09-24T09:31:50.487Z,58.60
2017-09-24T09:34:32.352Z,53.40
2017-09-24T09:37:01.734Z,52.80
2017-09-24T09:39:30.991Z,53.00
2017-09-24T09:42:01.133Z,52.40
2017-09-24T09:47:31.094Z,53.30
2017-09-24T09:50:00.342Z,54.50
2017-09-24T09:52:29.770Z,53.00
2017-09-24T09:55:00.491Z,51.20
2017-09-24T09:57:30.547Z,50.20
2017-09-24T09:59:59.823Z,50.20
2017-09-24T10:02:29.101Z,50.60
2017-09-24T10:04:58.442Z,51.10
2017-09-24T10:07:46.222Z,53.80
2017-09-24T10:10:17.726Z,55.10
2017-09-24T10:12:46.988Z,55.10
2017-09-24T10:15:16.246Z,55.90
2017-09-24T10:17:45.558Z,56.20
2017-09-24T10:20:14.823Z,56.00
2017-09-24T10:22:44.842Z,56.60
2017-09-24T10:25:14.101Z,54.70
2017-09-24T10:27:43.423Z,54.10
2017-09-24T10:30:31.140Z,57.70
2017-09-24T10:33:00.404Z,57.60
2017-09-24T10:35:29.686Z,56.20
2017-09-24T10:37:58.957Z,55.90
2017-09-24T10:40:28.209Z,53.50
2017-09-24T10:42:57.486Z,54.80
2017-09-24T10:45:26.829Z,57.00
2017-09-24T10:47:56.070Z,57.70
2017-09-24T10:50:25.358Z,58.80
2017-09-24T10:52:55.374Z,57.60
2017-09-24T10:55:24.773Z,57.50
2017-09-24T10:57:54.802Z,56.70
2017-09-24T11:00:24.075Z,56.70
2017-09-24T11:02:53.494Z,59.00
2017-09-24T11:05:22.769Z,60.10
2017-09-24T11:07:52.030Z,57.60
2017-09-24T11:10:21.293Z,58.40
2017-09-24T11:12:50.560Z,59.30
2017-09-24T11:15:19.829Z,60.90
2017-09-24T11:17:49.093Z,63.70
2017-09-24T11:20:18.385Z,64.00
2017-09-24T11:22:47.637Z,62.60
2017-09-24T11:25:16.898Z,64.70
2017-09-24T11:27:46.950Z,64.90
2017-09-24T11:30:16.209Z,64.90
2017-09-24T11:32:45.493Z,65.40
2017-09-24T11:35:14.785Z,65.00
2017-09-24T11:37:44.038Z,65.70
2017-09-24T11:40:13.346Z,66.70
2017-09-24T11:42:42.600Z,66.80
2017-09-24T11:45:11.863Z,66.00
2017-09-24T11:47:41.189Z,65.50
2017-09-24T11:50:10.439Z,68.20
2017-09-24T11:52:40.464Z,68.30
2017-09-24T11:55:09.767Z,68.20
2017-09-24T11:57:39.215Z,68.40
2017-09-24T12:00:08.505Z,68.80
2017-09-24T12:02:37.826Z,68.90
2017-09-24T12:05:07.134Z,69.60
2017-09-24T12:07:36.575Z,68.30
2017-09-24T12:10:06.601Z,69.30
2017-09-24T12:12:35.877Z,69.20
2017-09-24T12:15:05.122Z,71.00
2017-09-24T12:17:34.397Z,72.40
2017-09-24T12:20:04.418Z,73.10
2017-09-24T12:22:33.690Z,73.00
2017-09-24T12:25:02.966Z,72.00
2017-09-24T12:27:32.209Z,74.10
2017-09-24T12:30:02.258Z,73.70
2017-09-24T12:32:31.517Z,73.60
2017-09-24T12:35:00.773Z,73.30
2017-09-24T12:37:30.054Z,72.50
2017-09-24T12:39:59.345Z,73.50
2017-09-24T12:42:29.372Z,73.00
2017-09-24T12:44:58.766Z,73.00
2017-09-24T12:47:28.821Z,74.00
2017-09-24T12:49:58.176Z,73.90
2017-09-24T12:52:27.437Z,72.10
2017-09-24T12:54:56.710Z,71.60
2017-09-24T12:57:25.989Z,68.60
2017-09-24T12:59:56.052Z,68.60
2017-09-24T13:02:25.386Z,68.00
2017-09-24T13:04:54.638Z,69.00
2017-09-24T13:07:23.954Z,64.40
2017-09-24T13:09:53.406Z,66.20
2017-09-24T13:12:23.454Z,67.40
2017-09-24T13:14:52.706Z,67.40
2017-09-24T13:17:21.959Z,67.00
2017-09-24T13:19:51.246Z,67.00
2017-09-24T13:22:20.498Z,67.70
2017-09-24T13:24:49.774Z,68.20
2017-09-24T13:27:19.025Z,68.50
2017-09-24T13:29:48.433Z,66.60
2017-09-24T13:32:18.555Z,65.30
2017-09-24T13:34:48.713Z,64.40
2017-09-24T13:37:18.037Z,64.30
2017-09-24T13:39:47.294Z,65.40
2017-09-24T13:42:16.596Z,65.90
2017-09-24T13:44:46.645Z,64.80
2017-09-24T13:47:16.102Z,64.90
2017-09-24T13:49:45.350Z,65.90
2017-09-24T13:52:14.646Z,65.70
2017-09-24T13:54:43.907Z,66.00
2017-09-24T13:57:13.962Z,65.50
2017-09-24T13:59:43.346Z,65.40
2017-09-24T14:02:13.369Z,64.40
2017-09-24T14:04:42.646Z,64.40
2017-09-24T14:07:11.912Z,64.40
2017-09-24T14:09:41.202Z,64.60
2017-09-24T14:12:10.462Z,64.80
2017-09-24T14:14:40.474Z,63.90
2017-09-24T14:17:10.529Z,63.60
2017-09-24T14:19:39.833Z,64.20
2017-09-24T14:22:09.122Z,62.40
2017-09-24T14:24:38.462Z,62.70
2017-09-24T14:27:09.275Z,60.00
2017-09-24T14:29:38.760Z,60.60
2017-09-24T14:32:08.164Z,61.40
2017-09-24T14:34:37.554Z,61.80
2017-09-24T14:37:07.601Z,62.50
2017-09-24T14:39:36.849Z,62.50
2017-09-24T14:42:06.178Z,62.30
2017-09-24T14:44:36.184Z,60.80
2017-09-24T14:47:05.715Z,60.70
2017-09-24T14:49:34.941Z,60.30
2017-09-24T14:52:04.218Z,60.10
2017-09-24T14:54:33.462Z,60.50
2017-09-24T14:57:02.966Z,60.20
2017-09-24T14:59:32.265Z,60.50
2017-09-24T15:02:02.287Z,59.50
2017-09-24T15:04:33.688Z,60.80
2017-09-24T15:07:02.973Z,60.60
2017-09-24T15:09:32.234Z,62.70
2017-09-24T15:12:01.505Z,61.90
2017-09-24T15:14:30.986Z,62.70
2017-09-24T15:17:01.026Z,62.70
2017-09-24T15:19:30.509Z,62.70
2017-09-24T15:21:59.793Z,63.20
2017-09-24T15:24:29.835Z,63.40
2017-09-24T15:26:59.862Z,66.00
2017-09-24T15:29:29.133Z,66.00
2017-09-24T15:31:58.406Z,61.80
2017-09-24T15:34:27.770Z,60.80
2017-09-24T15:36:57.231Z,62.90
2017-09-24T15:39:26.515Z,63.40
2017-09-24T15:41:55.780Z,68.60
2017-09-24T15:44:25.045Z,68.30
2017-09-24T15:46:54.341Z,68.50
2017-09-24T15:49:24.349Z,70.30
2017-09-24T15:51:55.136Z,72.20
2017-09-24T15:54:24.549Z,72.30
2017-09-24T15:56:54.031Z,75.10
2017-09-24T15:59:24.330Z,76.30
2017-09-24T16:01:53.838Z,76.30
2017-09-24T16:04:23.097Z,74.50
2017-09-24T16:06:52.357Z,74.60
2017-09-24T16:09:21.698Z,76.00
2017-09-24T16:11:50.947Z,76.70
2017-09-24T16:14:20.228Z,74.70
2017-09-24T16:16:49.467Z,75.50
2017-09-24T16:19:18.714Z,77.30
2017-09-24T16:21:47.974Z,78.40
2017-09-24T16:24:17.367Z,78.70
2017-09-24T16:26:47.477Z,82.00
2017-09-24T16:29:17.491Z,83.10
2017-09-24T16:31:46.754Z,83.10
2017-09-24T16:34:16.020Z,84.90
2017-09-24T16:36:45.910Z,84.10
2017-09-24T16:39:15.943Z,87.20
2017-09-24T16:41:45.193Z,86.50
2017-09-24T16:44:14.438Z,85.90
2017-09-24T16:46:43.905Z,86.40
2017-09-24T16:49:13.144Z,87.10
2017-09-24T16:51:42.415Z,89.00
2017-09-24T16:54:11.661Z,89.60
2017-09-24T16:56:40.921Z,90.70
2017-09-24T16:59:10.180Z,91.10
2017-09-24T17:01:39.458Z,91.20
2017-09-24T17:04:08.848Z,91.80
2017-09-24T17:06:38.217Z,91.90
2017-09-24T17:09:07.482Z,91.70
2017-09-24T17:11:36.737Z,92.80
2017-09-24T17:14:06.772Z,92.60
2017-09-24T17:16:36.020Z,92.40
2017-09-24T17:19:05.339Z,92.30
2017-09-24T17:21:34.601Z,92.90
2017-09-24T17:24:03.877Z,92.40
2017-09-24T17:26:33.911Z,93.70
2017-09-24T17:29:03.158Z,93.70
2017-09-24T17:31:33.285Z,94.00
2017-09-24T17:34:02.522Z,94.30
2017-09-24T17:36:31.793Z,94.90
2017-09-24T17:39:01.211Z,95.20
2017-09-24T17:41:30.454Z,94.30
2017-09-24T17:43:59.962Z,94.50
2017-09-24T17:46:29.250Z,95.50
2017-09-24T17:48:58.506Z,94.40
2017-09-24T17:51:27.862Z,94.70
2017-09-24T17:53:57.112Z,94.60
2017-09-24T17:56:26.406Z,95.20
2017-09-24T17:58:55.839Z,95.60
2017-09-24T18:01:25.102Z,95.60
2017-09-24T18:03:54.410Z,94.90
2017-09-24T18:06:25.177Z,95.20
2017-09-24T18:08:54.458Z,95.10
2017-09-24T18:11:23.709Z,95.70
2017-09-24T18:13:52.988Z,95.80
2017-09-24T18:16:23.016Z,95.90
2017-09-24T18:18:52.389Z,95.80
2017-09-24T18:21:22.430Z,96.30
2017-09-24T18:23:52.471Z,96.20
2017-09-24T18:26:21.779Z,96.10
2017-09-24T18:28:51.170Z,96.60
2017-09-24T18:31:20.465Z,96.60
2017-09-24T18:33:49.721Z,95.90
2017-09-24T18:36:20.497Z,97.50
2017-09-24T18:38:49.851Z,97.50
2017-09-24T18:41:19.162Z,97.10
2017-09-24T18:43:48.638Z,97.10
2017-09-24T18:46:17.890Z,97.20
2017-09-24T18:48:47.232Z,97.20
2017-09-24T18:51:16.607Z,96.50
2017-09-24T18:53:46.597Z,97.30
2017-09-24T18:56:16.052Z,97.30
2017-09-24T18:58:45.525Z,97.00
2017-09-24T19:01:15.848Z,97.30
2017-09-24T19:03:46.075Z,97.30
2017-09-24T19:06:15.499Z,97.30
2017-09-24T19:08:45.661Z,97.40
2017-09-24T19:11:15.253Z,97.40
2017-09-24T19:13:44.668Z,97.90
2017-09-24T19:16:14.036Z,97.40
2017-09-24T19:18:43.735Z,97.20
2017-09-24T19:21:13.059Z,97.70
2017-09-24T19:23:42.341Z,97.40
2017-09-24T19:26:12.465Z,97.70
2017-09-24T19:28:42.014Z,97.70
2017-09-24T19:31:11.315Z,97.20
2017-09-24T19:33:40.677Z,97.00
2017-09-24T19:36:10.775Z,97.20
2017-09-24T19:38:40.196Z,97.20
2017-09-24T19:41:09.548Z,97.20
2017-09-24T19:43:39.208Z,97.40
2017-09-24T19:46:08.652Z,97.40
2017-09-24T19:48:38.023Z,97.30
2017-09-24T19:51:07.451Z,97.30
2017-09-24T19:53:37.605Z,97.40
2017-09-24T19:56:06.939Z,97.30
2017-09-24T19:58:36.172Z,97.40
2017-09-24T20:01:05.487Z,97.40
2017-09-24T20:03:34.771Z,97.50
2017-09-24T20:06:04.269Z,97.60
2017-09-24T20:08:33.518Z,97.70
2017-09-24T20:11:02.847Z,97.70
2017-09-24T20:13:32.062Z,97.70
2017-09-24T20:16:01.317Z,97.80
2017-09-24T20:18:30.614Z,97.80
2017-09-24T20:20:59.894Z,97.80
2017-09-24T20:23:29.157Z,97.80
2017-09-24T20:25:58.410Z,97.70
2017-09-24T20:28:27.742Z,97.80
2017-09-24T20:30:57.919Z,97.80
2017-09-24T20:33:27.205Z,97.70
2017-09-24T20:35:56.451Z,97.70
2017-09-24T20:38:25.709Z,97.60
2017-09-24T20:40:54.979Z,97.50
2017-09-24T20:43:24.225Z,97.50
2017-09-24T20:45:53.670Z,97.50
2017-09-24T20:48:23.682Z,97.70
2017-09-24T20:50:53.310Z,97.60
2017-09-24T20:53:23.951Z,98.00
2017-09-24T20:55:53.195Z,97.70
2017-09-24T20:58:22.449Z,97.70
2017-09-24T21:00:51.713Z,97.70
2017-09-24T21:03:21.000Z,97.60
2017-09-24T21:05:50.246Z,97.80
2017-09-24T21:08:19.644Z,97.90
2017-09-24T21:10:49.680Z,97.90
2017-09-24T21:13:19.054Z,97.90
2017-09-24T21:15:49.086Z,97.90
2017-09-24T21:18:18.326Z,97.90
2017-09-24T21:20:47.591Z,97.80
2017-09-24T21:23:17.638Z,97.90
2017-09-24T21:25:46.930Z,97.90
2017-09-24T21:28:16.230Z,97.80
2017-09-24T21:30:45.525Z,97.90
2017-09-24T21:33:14.804Z,98.00
2017-09-24T21:35:44.071Z,97.90
2017-09-24T21:38:13.507Z,97.90
2017-09-24T21:40:44.157Z,98.00
2017-09-24T21:43:13.427Z,98.00
2017-09-24T21:45:42.863Z,98.20
2017-09-24T21:48:12.181Z,98.10
2017-09-24T21:50:41.435Z,98.10
2017-09-24T21:53:10.712Z,98.20
2017-09-24T21:55:40.013Z,98.20
2017-09-24T21:58:09.549Z,98.20
2017-09-24T22:00:38.821Z,98.20
2017-09-24T22:03:08.380Z,98.20
2017-09-24T22:05:38.414Z,98.30
2017-09-24T22:08:07.695Z,98.30
2017-09-24T22:10:36.945Z,98.20
2017-09-24T22:13:06.393Z,98.20
2017-09-24T22:15:36.432Z,98.30
2017-09-24T22:18:05.814Z,98.30
2017-09-24T22:20:35.836Z,98.10
2017-09-24T22:23:05.225Z,98.40
2017-09-24T22:25:34.531Z,98.10
2017-09-24T22:28:04.562Z,98.10
2017-09-24T22:30:33.981Z,98.10
2017-09-24T22:33:03.250Z,98.00
2017-09-24T22:35:32.504Z,98.00
2017-09-24T22:38:01.850Z,97.90
2017-09-24T22:40:31.126Z,97.80
2017-09-24T22:43:00.467Z,97.90
2017-09-24T22:45:29.766Z,98.00
2017-09-24T22:47:59.013Z,97.80
2017-09-24T22:50:28.266Z,97.80
2017-09-24T22:52:57.785Z,97.80
2017-09-24T22:55:27.195Z,97.80
2017-09-24T22:57:56.482Z,97.70
2017-09-24T23:00:26.762Z,97.90
2017-09-24T23:02:56.041Z,97.90
2017-09-24T23:05:25.286Z,97.90
2017-09-24T23:07:54.574Z,97.90
2017-09-24T23:10:23.846Z,98.00
2017-09-24T23:12:53.126Z,98.10
2017-09-24T23:15:22.394Z,98.20
2017-09-24T23:17:51.706Z,98.10
2017-09-24T23:20:21.734Z,98.10
2017-09-24T23:22:50.989Z,98.10
2017-09-24T23:25:20.281Z,98.00
2017-09-24T23:27:49.550Z,98.10
2017-09-24T23:30:18.805Z,98.10
2017-09-24T23:32:48.098Z,98.00
2017-09-24T23:35:17.355Z,98.00
2017-09-24T23:37:46.726Z,97.90
2017-09-24T23:40:17.029Z,98.10
2017-09-24T23:42:46.305Z,97.90
2017-09-24T23:45:15.611Z,98.00
2017-09-24T23:47:44.872Z,98.10
2017-09-24T23:50:14.117Z,98.00
2017-09-24T23:52:43.557Z,98.10
2017-09-24T23:55:12.813Z,98.00
2017-09-24T23:57:42.098Z,98.20
